Terminal Aerodrome Forecast
Issued by NWS

Home | Current Version | Previous Version | Text Only | Print | Product List | Glossary On
Versions: 1 2 3 4 5 6 7 8 9 10 11 12 13 14
638
FTUS42 KGSP 131720
TAFAND
TAF
KAND 131720Z 1318/1418 30006G15KT P6SM SKC
      TEMPO 1318/1322 VRB03KT
     FM140200 03004KT P6SM FEW250
     FM141100 08006KT P6SM BKN110=

USA.gov is the U.S. government's official web portal to all federal, state and local government web resources and services.